Time;durP1;ratioP1;P1;durP2;ratioP2;P2;SDS_P1;SDS_P2;PMS_P1;PMS_P2;Temp;Humidity;BMP_temperature;BMP_pressure;BME280_temperature;BME280_humidity;BME280_pressure;Samples;Min_cycle;Max_cycle;Signal;HPM_P1;HPM_P2
2021/08/06 00:01:56;;;;;;;2.90;2.40;;;17.80;99.90;;;;;;5094161;28;20492;-74
2021/08/06 00:04:22;;;;;;;2.27;2.07;;;17.80;99.90;;;;;;5087726;28;20212;-74
2021/08/06 00:06:47;;;;;;;2.87;2.37;;;17.80;99.90;;;;;;5073691;28;20642;-74
2021/08/06 00:09:13;;;;;;;2.37;2.17;;;17.80;99.90;;;;;;5092210;28;20259;-74
2021/08/06 00:11:39;;;;;;;2.20;2.00;;;17.80;99.90;;;;;;5092732;28;20156;-74
2021/08/06 00:14:05;;;;;;;2.13;1.90;;;17.80;99.90;;;;;;5092641;28;20166;-74
2021/08/06 00:16:31;;;;;;;3.30;2.07;;;17.80;99.90;;;;;;5093996;28;20400;-74
2021/08/06 00:18:57;;;;;;;2.43;1.70;;;17.80;99.90;;;;;;5093732;28;20397;-74
2021/08/06 00:21:22;;;;;;;2.57;2.37;;;17.80;99.90;;;;;;5093837;28;20888;-74
2021/08/06 00:23:48;;;;;;;1.80;1.70;;;17.80;99.90;;;;;;5093683;28;20163;-74
2021/08/06 00:26:14;;;;;;;2.97;2.07;;;17.80;99.90;;;;;;5093412;28;20230;-74
2021/08/06 00:28:40;;;;;;;2.30;2.10;;;17.80;99.90;;;;;;5093192;28;20220;-74
2021/08/06 00:31:06;;;;;;;1.93;1.70;;;17.80;99.90;;;;;;5092817;28;20171;-74
2021/08/06 00:33:32;;;;;;;3.27;2.60;;;17.80;99.90;;;;;;5093367;28;20423;-74
2021/08/06 00:35:57;;;;;;;2.40;2.20;;;17.80;99.90;;;;;;5093481;28;20399;-74
2021/08/06 00:38:23;;;;;;;2.60;2.40;;;17.80;99.90;;;;;;5089518;28;20170;-74
2021/08/06 00:40:49;;;;;;;2.00;1.80;;;17.80;99.90;;;;;;5072991;28;20678;-74
2021/08/06 00:43:14;;;;;;;2.27;2.07;;;17.80;99.90;;;;;;5073028;28;20221;-74
2021/08/06 00:45:41;;;;;;;3.27;1.80;;;17.80;99.90;;;;;;5073535;28;20444;-74
2021/08/06 00:48:07;;;;;;;2.20;2.00;;;17.80;99.90;;;;;;5073570;28;20174;-74
2021/08/06 00:50:32;;;;;;;2.20;2.00;;;17.90;99.90;;;;;;5072857;28;20397;-74
2021/08/06 00:52:58;;;;;;;2.27;1.90;;;17.80;99.90;;;;;;5072784;28;20159;-74
2021/08/06 00:55:24;;;;;;;2.33;1.70;;;17.80;99.90;;;;;;5072818;28;20231;-74
2021/08/06 00:57:49;;;;;;;2.40;2.20;;;17.80;99.90;;;;;;5072836;28;20406;-74
2021/08/06 01:00:15;;;;;;;2.97;2.30;;;17.80;99.90;;;;;;5072927;28;20247;-74
2021/08/06 01:03:12;;;;;;;3.10;2.20;;;17.90;99.90;;;;;;5073137;28;20169;-74
2021/08/06 01:05:43;;;;;;;2.23;1.90;;;17.80;99.90;;;;;;5073037;28;20899;-74
2021/08/06 01:08:13;;;;;;;3.10;2.27;;;17.80;99.90;;;;;;5072675;28;20397;-74
2021/08/06 01:10:58;;;;;;;2.10;2.00;;;17.90;99.90;;;;;;5089130;28;20414;-74
2021/08/06 01:13:30;;;;;;;2.57;2.10;;;17.90;99.90;;;;;;5092984;28;20396;-74
2021/08/06 01:16:00;;;;;;;2.67;2.03;;;17.90;99.90;;;;;;5092820;28;20393;-74
2021/08/06 01:18:29;;;;;;;3.03;2.40;;;17.90;99.90;;;;;;5092868;28;20422;-74
2021/08/06 01:20:56;;;;;;;1.87;1.70;;;17.90;99.90;;;;;;5091691;28;20413;-74
2021/08/06 01:23:33;;;;;;;1.90;1.80;;;17.90;99.90;;;;;;5091866;28;20496;-74
2021/08/06 01:26:03;;;;;;;2.30;2.10;;;17.90;99.90;;;;;;5092440;28;20472;-74
2021/08/06 01:28:32;;;;;;;2.63;2.43;;;17.90;99.90;;;;;;5092878;28;20437;-74
2021/08/06 01:30:58;;;;;;;2.03;1.83;;;17.80;99.90;;;;;;5092554;28;20402;-74
2021/08/06 01:33:24;;;;;;;2.50;2.30;;;17.80;99.90;;;;;;5092654;28;20417;-74
2021/08/06 01:35:50;;;;;;;3.67;1.83;;;17.80;99.90;;;;;;5092555;28;20170;-74
2021/08/06 01:38:17;;;;;;;2.20;2.00;;;17.80;99.90;;;;;;5089292;28;20420;-74
2021/08/06 01:43:46;;;;;;;2.37;2.00;;;17.80;99.90;;;;;;5069838;28;21025;-71
2021/08/06 01:46:20;;;;;;;3.73;2.10;;;17.70;99.90;;;;;;5070053;28;20451;-71
2021/08/06 01:48:49;;;;;;;2.60;2.03;;;17.70;99.90;;;;;;5069819;28;20821;-71
2021/08/06 01:51:15;;;;;;;2.57;1.90;;;17.70;99.90;;;;;;5069883;28;20378;-71
2021/08/06 01:53:47;;;;;;;2.73;2.43;;;17.70;99.90;;;;;;5069589;28;20962;-71
2021/08/06 01:56:18;;;;;;;2.20;2.00;;;17.70;99.90;;;;;;5050318;28;20437;-71
2021/08/06 01:58:46;;;;;;;1.90;1.70;;;17.60;99.90;;;;;;5049420;28;20439;-71
2021/08/06 02:01:13;;;;;;;1.97;1.77;;;17.60;99.90;;;;;;5049348;28;20427;-71
2021/08/06 02:03:40;;;;;;;2.17;1.50;;;17.60;99.90;;;;;;5050086;28;20911;-71
2021/08/06 02:06:06;;;;;;;2.80;2.50;;;17.50;99.90;;;;;;5050006;28;20403;-71
2021/08/06 02:08:34;;;;;;;4.93;2.73;;;17.50;99.90;;;;;;5049671;28;20406;-71
2021/08/06 02:11:00;;;;;;;1.87;1.77;;;17.40;99.90;;;;;;5049874;28;20510;-71
2021/08/06 02:13:25;;;;;;;1.70;1.60;;;17.40;99.90;;;;;;5049979;28;20513;-71
2021/08/06 02:15:51;;;;;;;3.00;1.80;;;17.40;99.90;;;;;;5049118;28;20613;-71
2021/08/06 02:18:25;;;;;;;2.57;2.00;;;17.40;99.90;;;;;;5049610;28;20176;-71
2021/08/06 02:20:54;;;;;;;1.83;1.70;;;17.30;99.90;;;;;;5049185;28;20668;-71
2021/08/06 02:23:21;;;;;;;2.93;1.83;;;17.30;99.90;;;;;;5049338;28;20802;-71
2021/08/06 02:25:48;;;;;;;2.37;2.17;;;17.30;99.90;;;;;;5049061;28;20397;-71
2021/08/06 02:28:13;;;;;;;2.30;2.07;;;17.30;99.90;;;;;;5049766;28;20406;-71
2021/08/06 02:30:40;;;;;;;3.40;2.03;;;17.30;99.90;;;;;;5049397;28;20911;-71
2021/08/06 02:33:06;;;;;;;3.27;2.07;;;17.30;99.90;;;;;;5049002;28;20165;-71
2021/08/06 02:35:31;;;;;;;2.57;1.90;;;17.30;99.90;;;;;;5049009;28;20449;-71
2021/08/06 02:37:57;;;;;;;2.30;2.10;;;17.30;99.90;;;;;;5048753;28;20935;-71
2021/08/06 02:40:23;;;;;;;2.80;2.60;;;17.30;99.90;;;;;;5049045;28;20202;-71
2021/08/06 02:42:50;;;;;;;2.03;1.83;;;17.30;99.90;;;;;;5048340;28;20239;-71
2021/08/06 02:45:15;;;;;;;3.60;1.70;;;17.30;99.90;;;;;;5049185;28;20716;-71
2021/08/06 02:47:41;;;;;;;4.50;2.33;;;17.30;99.90;;;;;;5049259;28;20419;-71
2021/08/06 02:50:07;;;;;;;2.87;1.70;;;17.30;99.90;;;;;;5048673;28;20222;-71
2021/08/06 02:52:33;;;;;;;2.20;1.90;;;17.30;99.90;;;;;;5048619;28;20179;-71
2021/08/06 02:54:58;;;;;;;2.10;1.87;;;17.30;99.90;;;;;;5035038;28;20400;-71
2021/08/06 02:57:24;;;;;;;2.63;1.90;;;17.30;99.90;;;;;;5035622;28;20526;-71
2021/08/06 02:59:51;;;;;;;2.60;2.40;;;17.30;99.90;;;;;;5035321;28;20208;-71
2021/08/06 03:02:17;;;;;;;2.50;2.03;;;17.30;99.90;;;;;;5035543;28;20681;-71
2021/08/06 03:04:42;;;;;;;2.33;1.63;;;17.30;99.90;;;;;;5035507;28;20411;-71
2021/08/06 03:07:08;;;;;;;3.43;1.80;;;17.40;99.90;;;;;;5035721;28;20909;-71
2021/08/06 03:09:34;;;;;;;2.10;1.90;;;17.40;99.90;;;;;;5035065;28;20163;-71
2021/08/06 03:11:59;;;;;;;2.23;2.03;;;17.40;99.90;;;;;;5034865;28;20168;-71
2021/08/06 03:14:25;;;;;;;2.27;1.70;;;17.40;99.90;;;;;;5034918;28;20146;-71
2021/08/06 03:16:50;;;;;;;3.50;1.83;;;17.40;99.90;;;;;;5034961;28;20215;-71
2021/08/06 03:19:16;;;;;;;2.20;2.00;;;17.40;99.90;;;;;;5035690;28;20288;-71
2021/08/06 03:21:42;;;;;;;3.93;2.30;;;17.40;99.90;;;;;;5035550;28;20295;-71
2021/08/06 03:24:07;;;;;;;2.30;2.00;;;17.40;99.90;;;;;;5034737;28;20157;-71
2021/08/06 03:26:32;;;;;;;2.80;2.57;;;17.40;99.90;;;;;;5034685;28;20523;-71
2021/08/06 03:28:58;;;;;;;2.90;2.60;;;17.40;99.90;;;;;;5034729;28;20154;-71
2021/08/06 03:31:24;;;;;;;2.80;2.03;;;17.30;99.90;;;;;;5034562;28;20168;-71
2021/08/06 03:33:49;;;;;;;3.40;2.50;;;17.20;99.90;;;;;;5034581;28;20629;-71
2021/08/06 03:36:15;;;;;;;2.50;1.97;;;17.10;99.90;;;;;;5034933;28;20211;-71
2021/08/06 03:38:41;;;;;;;1.80;1.70;;;17.00;99.90;;;;;;5039994;28;20183;-72
2021/08/06 03:41:06;;;;;;;2.40;2.20;;;17.00;99.90;;;;;;5054280;28;20395;-71
2021/08/06 03:43:32;;;;;;;3.30;2.77;;;16.90;99.90;;;;;;5054164;28;20260;-71
2021/08/06 03:45:57;;;;;;;2.63;2.43;;;16.80;99.90;;;;;;5054145;28;20172;-71
2021/08/06 03:48:23;;;;;;;2.77;2.57;;;16.80;99.90;;;;;;5054234;28;20172;-71
2021/08/06 03:50:48;;;;;;;2.60;2.10;;;16.70;99.90;;;;;;5054719;28;20229;-71
2021/08/06 03:53:14;;;;;;;4.03;2.10;;;16.70;99.90;;;;;;5053338;28;20256;-72
2021/08/06 03:55:39;;;;;;;2.53;2.23;;;16.60;99.90;;;;;;5053273;28;20196;-71
2021/08/06 03:58:05;;;;;;;3.10;2.27;;;16.60;99.90;;;;;;5053999;28;20164;-71
2021/08/06 04:00:34;;;;;;;2.63;2.43;;;16.60;99.90;;;;;;5053948;28;20264;-71
2021/08/06 04:03:00;;;;;;;2.27;2.07;;;16.60;99.90;;;;;;5054019;28;20278;-71
2021/08/06 04:05:25;;;;;;;2.10;2.00;;;16.60;99.90;;;;;;5038501;28;20458;-71
2021/08/06 04:07:51;;;;;;;4.27;2.73;;;16.60;99.90;;;;;;5034283;28;20652;-71
2021/08/06 04:10:19;;;;;;;1.87;1.73;;;16.60;99.90;;;;;;5034512;28;20189;-71
2021/08/06 04:12:46;;;;;;;2.90;2.60;;;16.60;99.90;;;;;;5034700;28;20196;-71
2021/08/06 04:15:13;;;;;;;2.07;1.90;;;16.60;99.90;;;;;;5033820;28;20399;-71
2021/08/06 04:17:39;;;;;;;3.00;2.20;;;16.50;99.90;;;;;;5034419;28;20403;-71
2021/08/06 04:20:05;;;;;;;4.67;3.00;;;16.50;99.90;;;;;;5034480;28;20904;-72
2021/08/06 04:22:30;;;;;;;2.80;2.47;;;16.50;99.90;;;;;;5033511;28;20276;-71
2021/08/06 04:24:56;;;;;;;4.00;2.73;;;16.50;99.90;;;;;;5033660;28;20658;-71
2021/08/06 04:27:22;;;;;;;2.50;2.30;;;16.50;99.90;;;;;;5034231;28;20303;-71
2021/08/06 04:29:47;;;;;;;2.50;2.30;;;16.50;99.90;;;;;;5034429;28;20187;-71
2021/08/06 04:32:13;;;;;;;4.00;2.67;;;16.50;99.90;;;;;;5033994;28;20227;-71
2021/08/06 04:34:38;;;;;;;3.17;2.50;;;16.50;99.90;;;;;;5034343;28;20156;-71
2021/08/06 04:37:04;;;;;;;3.53;2.93;;;16.50;99.90;;;;;;5033267;28;20161;-71
2021/08/06 04:39:29;;;;;;;3.70;2.40;;;16.50;99.90;;;;;;5045886;28;20172;-71
2021/08/06 04:41:55;;;;;;;2.60;2.40;;;16.50;99.90;;;;;;5053134;28;20203;-71
2021/08/06 04:44:20;;;;;;;2.70;2.40;;;16.50;99.90;;;;;;5047703;28;20180;-71
2021/08/06 04:46:46;;;;;;;4.80;2.53;;;16.40;99.90;;;;;;5033851;28;20189;-71
2021/08/06 04:49:12;;;;;;;3.77;2.27;;;16.40;99.90;;;;;;5033657;28;20161;-72
2021/08/06 04:51:38;;;;;;;2.23;2.07;;;16.40;99.90;;;;;;5033141;28;20252;-71
2021/08/06 04:54:04;;;;;;;6.37;2.60;;;16.40;99.90;;;;;;5033161;28;20494;-71
2021/08/06 04:56:31;;;;;;;2.70;2.50;;;16.50;99.90;;;;;;5033106;28;20396;-71
2021/08/06 04:58:57;;;;;;;2.33;2.13;;;16.40;99.90;;;;;;5033010;28;20431;-71
2021/08/06 05:01:22;;;;;;;2.00;1.77;;;16.50;99.90;;;;;;5033765;28;20940;-72
2021/08/06 05:03:48;;;;;;;2.77;2.27;;;16.50;99.90;;;;;;5034051;28;20716;-71
2021/08/06 05:06:15;;;;;;;2.97;2.67;;;16.50;99.90;;;;;;5032952;28;20169;-71
2021/08/06 05:08:43;;;;;;;3.20;2.30;;;16.50;99.90;;;;;;5032816;28;20235;-71
2021/08/06 05:11:08;;;;;;;3.03;2.73;;;16.50;99.90;;;;;;5032889;28;20415;-71
2021/08/06 05:13:34;;;;;;;2.87;2.40;;;16.50;99.90;;;;;;5032895;28;20423;-71
2021/08/06 05:16:00;;;;;;;2.70;2.50;;;16.50;99.90;;;;;;5033730;28;20607;-71
2021/08/06 05:18:25;;;;;;;2.27;2.00;;;16.50;99.90;;;;;;5033988;28;20234;-71
2021/08/06 05:20:51;;;;;;;2.43;2.23;;;16.60;99.90;;;;;;5033366;28;20234;-71
2021/08/06 05:23:16;;;;;;;2.93;2.30;;;16.60;99.90;;;;;;5032730;28;20195;-71
2021/08/06 05:25:42;;;;;;;2.93;2.50;;;16.60;99.90;;;;;;5032699;28;20149;-71
2021/08/06 05:28:07;;;;;;;2.63;2.37;;;16.60;99.90;;;;;;5032586;28;20157;-71
2021/08/06 05:30:33;;;;;;;2.20;2.00;;;16.60;99.90;;;;;;5033866;28;20168;-72
2021/08/06 05:32:59;;;;;;;2.50;2.30;;;16.60;99.90;;;;;;5033270;28;20161;-72
2021/08/06 05:35:24;;;;;;;2.27;2.07;;;16.60;99.90;;;;;;5033281;28;20184;-71
2021/08/06 05:37:50;;;;;;;2.33;1.70;;;16.60;99.90;;;;;;5032702;28;20175;-71
2021/08/06 05:40:16;;;;;;;2.10;1.90;;;16.60;99.90;;;;;;5032427;28;20310;-72
2021/08/06 05:42:41;;;;;;;3.03;2.73;;;16.60;99.90;;;;;;5032196;28;20478;-71
2021/08/06 05:45:08;;;;;;;2.73;2.20;;;16.60;99.90;;;;;;5033460;28;20157;-72
2021/08/06 05:47:51;;;;;;;2.20;2.00;;;16.60;99.90;;;;;;5033068;28;20526;-71
2021/08/06 05:50:18;;;;;;;2.53;2.30;;;16.70;99.90;;;;;;5032414;28;20395;-72
2021/08/06 05:52:45;;;;;;;2.90;2.27;;;16.70;99.90;;;;;;5032800;28;20573;-72
2021/08/06 05:55:11;;;;;;;2.10;1.90;;;16.70;99.90;;;;;;5041681;28;20430;-71
2021/08/06 05:57:37;;;;;;;2.40;2.20;;;16.70;99.90;;;;;;5050748;28;20417;-71
2021/08/06 06:00:05;;;;;;;2.60;2.37;;;16.80;99.90;;;;;;5042858;28;20516;-72
2021/08/06 06:02:30;;;;;;;2.30;2.10;;;16.80;99.90;;;;;;5049419;28;20188;-71
2021/08/06 06:04:56;;;;;;;2.13;1.93;;;16.80;99.90;;;;;;5039820;28;20454;-71
2021/08/06 06:07:21;;;;;;;2.33;1.90;;;16.80;99.90;;;;;;5035654;28;20203;-71
2021/08/06 06:09:47;;;;;;;1.90;1.70;;;16.80;99.90;;;;;;5030585;28;20535;-72
2021/08/06 06:12:12;;;;;;;2.33;2.13;;;16.80;99.90;;;;;;5033501;28;20177;-72
2021/08/06 06:14:38;;;;;;;2.53;2.13;;;16.80;99.90;;;;;;5046410;28;20624;-72
2021/08/06 06:17:04;;;;;;;2.13;1.67;;;16.80;99.90;;;;;;5052082;28;20211;-72
2021/08/06 06:19:30;;;;;;;2.40;1.77;;;16.80;99.90;;;;;;5050326;28;20243;-72
2021/08/06 06:21:55;;;;;;;1.90;1.80;;;16.90;99.90;;;;;;5031936;28;20946;-72
2021/08/06 06:24:21;;;;;;;2.37;1.90;;;16.80;99.90;;;;;;5032829;28;20650;-72
2021/08/06 06:26:47;;;;;;;2.17;1.97;;;16.80;99.90;;;;;;5032733;28;20672;-71
2021/08/06 06:29:12;;;;;;;2.40;2.20;;;16.80;99.90;;;;;;5035686;28;20184;-71
2021/08/06 06:31:38;;;;;;;2.27;1.90;;;16.80;99.90;;;;;;5035793;28;20251;-72
2021/08/06 06:34:03;;;;;;;2.47;1.93;;;16.90;99.90;;;;;;5035896;28;20161;-72
2021/08/06 06:36:29;;;;;;;3.00;1.90;;;17.00;99.90;;;;;;5044834;28;20542;-72
2021/08/06 06:38:55;;;;;;;2.07;1.90;;;17.10;99.90;;;;;;5040590;28;20191;-72
2021/08/06 06:41:20;;;;;;;2.37;2.07;;;17.10;99.90;;;;;;5055686;28;20164;-71
2021/08/06 06:43:46;;;;;;;2.07;1.87;;;17.20;99.90;;;;;;5048744;28;20191;-72
2021/08/06 06:46:11;;;;;;;1.93;1.67;;;17.20;99.90;;;;;;5050022;28;20665;-72
2021/08/06 06:48:37;;;;;;;1.80;1.70;;;17.30;99.90;;;;;;5051585;28;20153;-72
2021/08/06 06:51:03;;;;;;;2.40;1.77;;;17.30;99.90;;;;;;5043010;28;20195;-72
2021/08/06 06:53:29;;;;;;;2.07;1.87;;;17.40;99.90;;;;;;5036468;28;20162;-71
2021/08/06 06:55:54;;;;;;;2.10;1.90;;;17.60;99.90;;;;;;5040046;28;20407;-72
2021/08/06 06:58:21;;;;;;;3.77;1.87;;;17.70;99.90;;;;;;5035879;28;20164;-71
2021/08/06 07:00:47;;;;;;;5.83;1.63;;;17.70;99.90;;;;;;5044190;28;20185;-71
2021/08/06 07:03:12;;;;;;;2.10;1.90;;;17.80;99.90;;;;;;5039399;28;20469;-72
2021/08/06 07:05:38;;;;;;;2.10;1.53;;;17.80;99.90;;;;;;5075233;28;20148;-72
2021/08/06 07:08:04;;;;;;;2.40;1.60;;;17.80;99.90;;;;;;5069850;28;20164;-71
2021/08/06 07:10:29;;;;;;;1.40;1.30;;;17.80;99.90;;;;;;5035380;28;20211;-71
2021/08/06 07:12:55;;;;;;;1.63;1.43;;;17.80;99.90;;;;;;5035821;28;20161;-72
2021/08/06 07:15:21;;;;;;;1.13;1.00;;;17.90;99.90;;;;;;5039008;28;20169;-72
2021/08/06 07:17:47;;;;;;;1.50;1.40;;;17.90;99.90;;;;;;5048432;28;20314;-72
2021/08/06 07:20:15;;;;;;;2.00;1.90;;;18.00;99.90;;;;;;5054005;28;20915;-72
2021/08/06 07:22:41;;;;;;;2.13;1.97;;;18.00;99.90;;;;;;5034732;28;20447;-72
2021/08/06 07:25:10;;;;;;;1.50;1.40;;;18.10;99.90;;;;;;5053844;28;20439;-72
2021/08/06 07:27:36;;;;;;;1.90;1.47;;;18.20;99.90;;;;;;5055164;28;20388;-72
2021/08/06 07:30:03;;;;;;;3.30;1.80;;;18.40;99.90;;;;;;5054443;28;20419;-72
2021/08/06 07:32:29;;;;;;;2.30;1.60;;;18.50;99.90;;;;;;5053736;28;20489;-72
2021/08/06 07:34:54;;;;;;;1.20;1.10;;;18.50;99.90;;;;;;5043243;28;20495;-71
2021/08/06 07:37:21;;;;;;;3.73;1.43;;;18.50;99.90;;;;;;5036981;28;20230;-72
2021/08/06 07:39:47;;;;;;;1.50;1.33;;;18.60;99.90;;;;;;5054643;28;20175;-72
2021/08/06 07:42:12;;;;;;;2.00;1.10;;;18.70;99.90;;;;;;5054936;28;20466;-72
2021/08/06 07:44:38;;;;;;;5.10;1.37;;;18.70;99.90;;;;;;5043300;28;20226;-72
2021/08/06 07:47:04;;;;;;;1.33;1.20;;;18.70;99.90;;;;;;5034752;28;20586;-72
2021/08/06 07:49:29;;;;;;;1.20;1.10;;;18.80;99.90;;;;;;5034308;28;20287;-72
2021/08/06 07:51:55;;;;;;;2.10;1.57;;;18.90;99.90;;;;;;5053252;28;20413;-72
2021/08/06 07:54:20;;;;;;;1.63;1.20;;;19.00;99.90;;;;;;5043241;28;20180;-72
2021/08/06 07:56:46;;;;;;;2.07;1.33;;;19.00;99.90;;;;;;5036783;28;20211;-72
2021/08/06 07:59:14;;;;;;;1.47;1.37;;;19.00;99.90;;;;;;5054349;28;20558;-72
2021/08/06 08:01:39;;;;;;;2.53;1.47;;;19.00;99.90;;;;;;5054039;28;20600;-72
2021/08/06 08:04:05;;;;;;;2.23;1.23;;;18.90;99.90;;;;;;5071642;28;20401;-72
2021/08/06 08:06:30;;;;;;;1.67;1.57;;;18.90;99.90;;;;;;5073467;28;20159;-72
2021/08/06 08:08:56;;;;;;;1.50;1.40;;;18.90;99.90;;;;;;5044639;28;20258;-72
2021/08/06 08:11:21;;;;;;;1.53;1.17;;;19.00;99.90;;;;;;5053116;28;20664;-72
2021/08/06 08:13:47;;;;;;;1.80;1.27;;;18.90;99.90;;;;;;5053640;28;20209;-72
2021/08/06 08:16:13;;;;;;;1.33;1.23;;;18.90;99.90;;;;;;5041597;28;20169;-71
2021/08/06 08:18:38;;;;;;;1.73;1.60;;;18.90;99.90;;;;;;5033976;28;20583;-72
2021/08/06 08:21:04;;;;;;;1.40;1.27;;;19.00;99.90;;;;;;5038919;28;20409;-72
2021/08/06 08:23:29;;;;;;;1.53;1.07;;;19.20;99.90;;;;;;5052132;28;20238;-72
2021/08/06 08:25:55;;;;;;;1.63;1.40;;;19.40;99.90;;;;;;5040188;28;20250;-72
2021/08/06 08:28:23;;;;;;;1.10;1.03;;;19.80;99.90;;;;;;5044384;28;20176;-72
2021/08/06 08:30:49;;;;;;;1.33;1.23;;;20.40;99.90;;;;;;5053506;28;20387;-72
2021/08/06 08:33:17;;;;;;;2.03;1.57;;;20.80;99.90;;;;;;5048092;28;20403;-72
2021/08/06 08:35:43;;;;;;;2.87;1.33;;;21.20;99.90;;;;;;5033702;28;20248;-72
2021/08/06 08:38:09;;;;;;;4.40;1.50;;;21.60;99.90;;;;;;5033559;28;20399;-72
2021/08/06 08:40:35;;;;;;;2.47;1.20;;;22.30;99.90;;;;;;5033970;28;20388;-72
2021/08/06 08:43:00;;;;;;;6.53;1.10;;;23.40;99.90;;;;;;5043772;28;20738;-72
2021/08/06 08:45:26;;;;;;;1.70;1.13;;;24.20;99.90;;;;;;5041288;28;20638;-72
2021/08/06 08:47:52;;;;;;;4.07;1.30;;;24.60;99.90;;;;;;5033211;28;20153;-72
2021/08/06 08:50:18;;;;;;;1.10;0.90;;;24.50;99.90;;;;;;5033178;28;20226;-72
2021/08/06 08:52:44;;;;;;;1.40;1.30;;;24.30;99.90;;;;;;5065473;28;20401;-72
2021/08/06 08:55:10;;;;;;;1.80;1.70;;;24.00;99.90;;;;;;5068676;28;20871;-72
2021/08/06 08:57:36;;;;;;;1.37;1.27;;;23.60;99.90;;;;;;5066490;28;20480;-72
2021/08/06 09:00:04;;;;;;;1.50;1.17;;;23.50;99.90;;;;;;5043620;28;20470;-72
2021/08/06 09:02:30;;;;;;;2.23;1.17;;;23.40;99.90;;;;;;5035253;28;20622;-72
2021/08/06 09:05:13;;;;;;;2.13;1.37;;;23.30;99.90;;;;;;5027391;28;20399;-72
2021/08/06 09:07:39;;;;;;;1.60;1.40;;;22.90;99.90;;;;;;5028827;28;20159;-72
2021/08/06 09:10:08;;;;;;;1.70;1.33;;;22.50;99.90;;;;;;5028628;28;20391;-72
2021/08/06 09:23:59;;;;;;;1.30;1.07;;;21.00;99.90;;;;;;5042671;28;21060;-71
2021/08/06 09:31:56;;;;;;;1.87;1.50;;;20.30;99.90;;;;;;5064673;28;20520;-71
2021/08/06 09:34:25;;;;;;;2.23;1.73;;;19.80;99.90;;;;;;5035726;28;20412;-72
2021/08/06 09:47:37;;;;;;;1.90;1.47;;;19.60;99.90;;;;;;5059085;28;20517;-71
2021/08/06 09:50:11;;;;;;;1.83;1.67;;;20.30;99.90;;;;;;5041998;28;20445;-72
2021/08/06 09:52:39;;;;;;;2.70;1.93;;;20.60;99.90;;;;;;5038647;28;20466;-72
2021/08/06 09:55:07;;;;;;;1.50;1.20;;;21.10;99.90;;;;;;5025197;28;20407;-72
2021/08/06 09:57:33;;;;;;;1.57;1.30;;;21.60;99.90;;;;;;5033785;28;20475;-72
2021/08/06 10:00:00;;;;;;;3.17;1.37;;;22.20;99.90;;;;;;5042497;28;20826;-72
2021/08/06 10:02:30;;;;;;;1.50;0.93;;;22.80;99.90;;;;;;5045165;28;20324;-72
2021/08/06 10:07:37;;;;;;;2.00;1.73;;;23.10;99.90;;;;;;5133218;27;20520;-72
2021/08/06 10:10:07;;;;;;;2.07;1.80;;;23.30;99.90;;;;;;5125375;27;20774;-72
2021/08/06 10:12:33;;;;;;;3.83;2.00;;;23.40;99.90;;;;;;5120966;28;20419;-72
2021/08/06 10:14:59;;;;;;;1.60;1.50;;;23.40;99.90;;;;;;5125585;27;20423;-72
2021/08/06 10:17:24;;;;;;;3.60;2.07;;;23.50;99.90;;;;;;5126152;27;20578;-73
2021/08/06 10:19:51;;;;;;;1.23;1.13;;;23.60;99.90;;;;;;5120500;27;20506;-73
2021/08/06 10:22:18;;;;;;;1.50;1.40;;;23.70;99.90;;;;;;5125764;28;20169;-73
2021/08/06 10:24:47;;;;;;;1.40;1.30;;;23.70;99.90;;;;;;5124845;28;20415;-72
2021/08/06 10:27:14;;;;;;;1.60;1.50;;;23.70;99.90;;;;;;5126502;27;20674;-72
2021/08/06 10:30:03;;;;;;;2.03;1.53;;;23.70;99.90;;;;;;5123613;28;20425;-73
2021/08/06 10:32:30;;;;;;;2.03;1.43;;;23.60;99.90;;;;;;5114216;28;20423;-73
2021/08/06 10:37:57;;;;;;;2.10;1.43;;;23.60;99.90;;;;;;5105940;27;20518;-72
2021/08/06 10:40:58;;;;;;;5.60;1.40;;;23.80;99.90;;;;;;5085734;28;20460;-73
2021/08/06 10:46:20;;;;;;;2.17;1.50;;;24.00;99.90;;;;;;5019197;27;20540;-72
2021/08/06 10:48:48;;;;;;;1.80;1.50;;;24.10;99.90;;;;;;5023778;28;20404;-72
2021/08/06 10:56:36;;;;;;;3.57;1.97;;;24.30;99.90;;;;;;5017922;27;20861;-72
2021/08/06 11:07:04;;;;;;;2.00;1.63;;;24.20;99.90;;;;;;5092716;27;20527;-71
2021/08/06 11:12:11;;;;;;;2.00;1.73;;;23.80;99.90;;;;;;5130778;27;20605;-72
2021/08/06 11:17:20;;;;;;;1.83;1.63;;;23.50;99.90;;;;;;5069828;28;20532;-71
2021/08/06 11:22:35;;;;;;;2.33;2.03;;;23.30;99.90;;;;;;5058364;28;20533;-72
2021/08/06 11:27:42;;;;;;;2.33;1.73;;;23.30;99.90;;;;;;5087695;28;20656;-72
2021/08/06 11:30:11;;;;;;;7.50;2.07;;;23.10;99.90;;;;;;5090517;28;20413;-72
2021/08/06 11:32:59;;;;;;;3.53;2.23;;;22.90;99.90;;;;;;5081041;28;20509;-72
2021/08/06 11:35:30;;;;;;;1.57;1.23;;;22.50;99.90;;;;;;5083029;28;20417;-72
2021/08/06 11:38:02;;;;;;;2.80;1.60;;;22.00;99.90;;;;;;5069904;28;20401;-72
2021/08/06 11:40:30;;;;;;;2.93;1.40;;;21.70;99.90;;;;;;5070178;28;20425;-73
2021/08/06 11:42:56;;;;;;;3.17;1.70;;;21.40;99.90;;;;;;5089899;28;20390;-72
2021/08/06 11:45:25;;;;;;;3.33;1.60;;;21.40;99.90;;;;;;5090138;28;20403;-72
2021/08/06 11:47:53;;;;;;;1.70;1.60;;;21.30;99.90;;;;;;5091843;28;20423;-72
2021/08/06 11:50:53;;;;;;;1.90;1.70;;;21.20;99.90;;;;;;5088891;28;20409;-72
2021/08/06 11:55:58;;;;;;;2.00;1.77;;;21.20;99.90;;;;;;5110380;27;20556;-72
2021/08/06 11:58:40;;;;;;;4.80;1.97;;;21.10;99.90;;;;;;5110385;28;20755;-71
2021/08/06 12:01:07;;;;;;;2.27;1.70;;;21.20;99.90;;;;;;5111110;28;20881;-72
2021/08/06 12:03:51;;;;;;;1.60;1.40;;;21.30;99.90;;;;;;5109721;28;20392;-72
2021/08/06 12:06:19;;;;;;;1.70;1.50;;;21.30;99.90;;;;;;5104830;28;20405;-72
2021/08/06 12:08:45;;;;;;;4.87;2.83;;;21.40;99.90;;;;;;5090620;28;20420;-72
2021/08/06 12:11:14;;;;;;;2.90;1.10;;;21.40;99.90;;;;;;5089866;28;20919;-72
2021/08/06 12:16:27;;;;;;;1.80;1.50;;;21.70;99.90;;;;;;5132749;27;20620;-72
2021/08/06 12:18:56;;;;;;;2.63;1.73;;;21.60;99.90;;;;;;5131174;28;20397;-72
2021/08/06 12:21:26;;;;;;;1.73;1.60;;;21.70;99.90;;;;;;5131056;28;20727;-72
2021/08/06 12:23:55;;;;;;;1.97;1.53;;;21.60;99.90;;;;;;5130040;28;20406;-72
2021/08/06 12:37:11;;;;;;;2.40;1.23;;;21.40;99.90;;;;;;5069905;28;20516;-71
2021/08/06 12:39:52;;;;;;;1.60;1.30;;;21.40;99.90;;;;;;5069853;28;20406;-71
2021/08/06 12:47:45;;;;;;;1.20;1.03;;;21.70;99.90;;;;;;5070099;28;20516;-71
2021/08/06 12:50:13;;;;;;;1.40;1.30;;;21.70;99.90;;;;;;5070092;28;20401;-71
2021/08/06 12:52:42;;;;;;;1.37;1.00;;;21.50;99.90;;;;;;5069635;28;20394;-71
2021/08/06 13:00:44;;;;;;;1.10;1.00;;;21.50;99.90;;;;;;5061875;28;20602;-72
2021/08/06 13:08:43;;;;;;;2.00;1.67;;;21.10;99.90;;;;;;5069841;28;21122;-72
2021/08/06 13:11:12;;;;;;;1.43;1.33;;;21.00;99.90;;;;;;5070156;28;20484;-71
2021/08/06 13:16:17;;;;;;;1.80;1.67;;;20.90;99.90;;;;;;5068950;28;20513;-72
2021/08/06 13:18:43;;;;;;;1.53;1.43;;;21.00;99.90;;;;;;5050183;28;20434;-72
2021/08/06 13:21:11;;;;;;;2.40;1.30;;;21.10;99.90;;;;;;5049915;28;20387;-71
2021/08/06 13:23:38;;;;;;;3.40;1.43;;;21.20;99.90;;;;;;5049609;28;20404;-72
2021/08/06 13:26:05;;;;;;;3.37;1.50;;;21.20;99.90;;;;;;5050272;28;20387;-71
2021/08/06 13:28:31;;;;;;;1.60;1.40;;;21.40;99.90;;;;;;5053001;28;20400;-72
2021/08/06 13:30:56;;;;;;;2.37;1.30;;;21.50;99.90;;;;;;5050093;28;20386;-72
2021/08/06 13:33:22;;;;;;;1.50;1.40;;;21.60;99.90;;;;;;5049704;28;20229;-71
2021/08/06 13:35:47;;;;;;;1.43;1.13;;;21.60;99.90;;;;;;5049329;28;20188;-72
2021/08/06 13:38:13;;;;;;;2.37;1.37;;;21.70;99.90;;;;;;5049425;28;20179;-72
2021/08/06 13:40:39;;;;;;;1.17;1.00;;;21.70;99.90;;;;;;5049603;28;20160;-71
2021/08/06 13:43:07;;;;;;;1.20;1.10;;;21.90;99.90;;;;;;5052629;28;20391;-72
2021/08/06 13:45:32;;;;;;;2.17;1.70;;;21.90;99.90;;;;;;5049980;28;20168;-71
2021/08/06 13:47:59;;;;;;;1.23;1.07;;;22.00;99.90;;;;;;5049241;28;20908;-72
2021/08/06 13:50:24;;;;;;;1.30;1.20;;;22.00;99.90;;;;;;5049491;28;20468;-72
2021/08/06 13:52:50;;;;;;;1.70;1.60;;;22.00;99.90;;;;;;5049322;28;20784;-71
2021/08/06 13:55:15;;;;;;;1.30;1.20;;;22.00;99.90;;;;;;5049907;28;20214;-72
2021/08/06 13:57:41;;;;;;;1.50;1.40;;;22.10;99.90;;;;;;5051417;28;20163;-71
2021/08/06 14:00:09;;;;;;;1.37;1.20;;;22.10;99.90;;;;;;5033770;28;20575;-71
2021/08/06 14:02:35;;;;;;;1.90;1.37;;;22.10;99.90;;;;;;5029304;28;20155;-72
2021/08/06 14:05:01;;;;;;;2.60;1.20;;;22.10;99.90;;;;;;5029062;28;20423;-71
2021/08/06 14:07:27;;;;;;;1.73;1.03;;;22.10;99.90;;;;;;5029219;28;20423;-71
2021/08/06 14:09:52;;;;;;;1.37;1.23;;;22.10;99.90;;;;;;5030348;28;20391;-71
2021/08/06 14:12:18;;;;;;;1.13;1.03;;;22.20;99.90;;;;;;5030498;28;20244;-71
2021/08/06 14:14:44;;;;;;;2.00;1.50;;;22.20;99.90;;;;;;5028823;28;20362;-71
2021/08/06 14:17:10;;;;;;;1.50;1.23;;;22.20;99.90;;;;;;5028980;28;20162;-72
2021/08/06 14:19:36;;;;;;;2.03;1.20;;;22.30;99.90;;;;;;5028943;28;20177;-71
2021/08/06 14:22:02;;;;;;;3.13;1.30;;;22.40;99.90;;;;;;5028736;28;20411;-71
2021/08/06 14:24:28;;;;;;;1.50;1.40;;;22.40;99.90;;;;;;5019080;28;20420;-71
2021/08/06 14:26:54;;;;;;;1.10;1.00;;;22.30;99.90;;;;;;5020620;28;20168;-71